createdAt,value
2022-10-23T00:01:41.624Z,26.35
2022-10-23T00:04:11.453Z,30.60
2022-10-23T00:06:38.012Z,30.83
2022-10-23T00:09:06.418Z,27.05
2022-10-23T00:11:36.351Z,27.30
2022-10-23T00:14:05.968Z,29.85
2022-10-23T00:16:34.605Z,24.65
2022-10-23T00:19:01.165Z,32.92
2022-10-23T00:21:27.887Z,28.55
2022-10-23T00:24:01.945Z,28.73
2022-10-23T00:26:30.979Z,26.88
2022-10-23T00:29:00.451Z,28.20
2022-10-23T00:31:29.413Z,28.48
2022-10-23T00:33:58.268Z,32.92
2022-10-23T00:36:24.842Z,28.35
2022-10-23T00:38:53.836Z,30.27
2022-10-23T00:41:28.509Z,27.17
2022-10-23T00:44:08.626Z,28.92
2022-10-23T00:46:40.117Z,29.13
2022-10-23T00:49:09.875Z,30.05
2022-10-23T00:51:51.312Z,32.78
2022-10-23T00:56:56.122Z,29.67
2022-10-23T00:59:22.880Z,30.30
2022-10-23T01:01:49.630Z,29.77
2022-10-23T01:04:18.994Z,30.85
2022-10-23T01:07:14.091Z,33.25
2022-10-23T01:10:02.121Z,30.13
2022-10-23T01:12:28.544Z,31.13
2022-10-23T01:15:10.843Z,28.75
2022-10-23T01:17:46.609Z,28.77
2022-10-23T01:20:44.007Z,29.45
2022-10-23T01:23:32.404Z,25.95
2022-10-23T01:26:18.968Z,23.55
2022-10-23T01:28:45.403Z,26.55
2022-10-23T01:31:18.776Z,27.08
2022-10-23T01:33:53.862Z,25.08
2022-10-23T01:36:26.624Z,26.83
2022-10-23T01:38:56.060Z,28.42
2022-10-23T01:41:44.523Z,29.73
2022-10-23T01:44:22.677Z,29.33
2022-10-23T01:46:52.157Z,26.88
2022-10-23T01:49:23.745Z,32.00
2022-10-23T01:52:02.059Z,27.60
2022-10-23T01:54:38.744Z,26.55
2022-10-23T01:57:13.013Z,31.15
2022-10-23T01:59:44.580Z,25.83
2022-10-23T02:02:13.703Z,26.70
2022-10-23T02:04:52.267Z,29.98
2022-10-23T02:07:21.873Z,25.45
2022-10-23T02:09:50.717Z,22.35
2022-10-23T02:12:41.176Z,25.05
2022-10-23T02:15:22.329Z,25.25
2022-10-23T02:18:14.930Z,23.60
2022-10-23T02:20:56.283Z,25.98
2022-10-23T02:26:06.548Z,29.83
2022-10-23T02:28:40.324Z,29.65
2022-10-23T02:31:12.712Z,31.60
2022-10-23T02:33:39.631Z,27.05
2022-10-23T02:36:09.338Z,29.33
2022-10-23T02:38:42.629Z,25.40
2022-10-23T02:41:30.856Z,24.48
2022-10-23T02:44:27.744Z,23.58
2022-10-23T02:47:09.282Z,24.90
2022-10-23T02:49:54.492Z,25.83
2022-10-23T02:52:22.785Z,27.02
2022-10-23T02:55:07.947Z,24.55
2022-10-23T02:57:58.780Z,23.65
2022-10-23T03:00:25.824Z,19.45
2022-10-23T03:03:10.098Z,24.10
2022-10-23T03:05:40.212Z,24.05
2022-10-23T03:08:10.228Z,25.23
2022-10-23T03:10:39.515Z,25.17
2022-10-23T03:13:06.423Z,22.65
2022-10-23T03:15:35.831Z,22.48
2022-10-23T03:18:05.243Z,21.88
2022-10-23T03:20:31.809Z,25.92
2022-10-23T03:22:58.408Z,29.45
2022-10-23T03:25:25.383Z,26.73
2022-10-23T03:27:56.596Z,27.67
2022-10-23T03:30:23.250Z,26.25
2022-10-23T03:32:52.278Z,28.60
2022-10-23T03:37:48.127Z,23.05
2022-10-23T03:40:19.476Z,21.85
2022-10-23T03:42:48.586Z,25.13
2022-10-23T03:47:51.941Z,23.70
2022-10-23T03:50:21.448Z,24.42
2022-10-23T03:52:50.500Z,21.77
2022-10-23T03:57:48.701Z,21.77
2022-10-23T04:00:17.626Z,24.52
2022-10-23T04:02:47.034Z,23.38
2022-10-23T04:05:16.218Z,21.15
2022-10-23T04:07:47.670Z,20.98
2022-10-23T04:10:14.234Z,20.73
2022-10-23T04:12:41.178Z,24.27
2022-10-23T04:15:11.302Z,25.33
2022-10-23T04:17:37.936Z,26.05
2022-10-23T04:20:06.904Z,25.10
2022-10-23T04:22:36.151Z,21.42
2022-10-23T04:25:02.892Z,22.02
2022-10-23T04:27:31.839Z,25.17
2022-10-23T04:29:59.167Z,24.88
2022-10-23T04:32:28.377Z,22.90
2022-10-23T04:34:55.146Z,26.20
2022-10-23T04:37:24.367Z,23.02
2022-10-23T04:39:50.945Z,26.83
2022-10-23T04:42:22.324Z,26.02
2022-10-23T04:44:48.943Z,23.30
2022-10-23T04:47:18.099Z,24.95
2022-10-23T04:52:16.264Z,25.50
2022-10-23T04:54:45.347Z,23.70
2022-10-23T04:57:14.223Z,24.23
2022-10-23T04:59:40.886Z,25.05
2022-10-23T05:02:09.968Z,28.45
2022-10-23T05:04:39.184Z,30.15
2022-10-23T05:07:10.411Z,28.48
2022-10-23T05:09:39.322Z,30.05
2022-10-23T05:12:06.163Z,27.27
2022-10-23T05:14:34.944Z,25.75
2022-10-23T05:17:10.333Z,25.67
2022-10-23T05:19:45.144Z,21.38
2022-10-23T05:22:13.635Z,23.42
2022-10-23T05:24:49.668Z,22.63
2022-10-23T05:27:17.328Z,21.90
2022-10-23T05:29:46.295Z,20.60
2022-10-23T05:32:15.801Z,22.23
2022-10-23T05:34:43.411Z,21.00
2022-10-23T05:37:15.719Z,20.70
2022-10-23T05:39:42.983Z,25.20
2022-10-23T05:42:09.862Z,25.15
2022-10-23T05:44:36.910Z,21.67
2022-10-23T05:47:05.701Z,21.20
2022-10-23T05:49:34.847Z,23.88
2022-10-23T05:54:30.285Z,28.77
2022-10-23T05:56:59.126Z,28.85
2022-10-23T05:59:28.360Z,24.08
2022-10-23T06:01:55.095Z,24.00
2022-10-23T06:04:24.660Z,23.13
2022-10-23T06:06:51.245Z,23.85
2022-10-23T06:09:17.895Z,24.70
2022-10-23T06:11:46.954Z,25.95
2022-10-23T06:16:42.554Z,30.08
2022-10-23T06:21:43.579Z,21.90
2022-10-23T06:24:12.847Z,24.60
2022-10-23T06:29:06.046Z,26.15
2022-10-23T06:31:32.752Z,28.50
2022-10-23T06:34:01.996Z,25.95
2022-10-23T06:36:28.738Z,29.33
2022-10-23T06:38:57.524Z,29.77
2022-10-23T06:41:24.172Z,32.38
2022-10-23T06:43:53.767Z,26.98
2022-10-23T06:46:23.426Z,25.05
2022-10-23T06:48:52.300Z,23.20
2022-10-23T06:51:25.073Z,25.30
2022-10-23T06:53:53.952Z,28.80
2022-10-23T06:56:23.189Z,27.00
2022-10-23T06:58:52.426Z,25.88
2022-10-23T07:01:21.574Z,26.65
2022-10-23T07:03:49.107Z,24.42
2022-10-23T07:06:18.189Z,25.58
2022-10-23T07:11:16.348Z,22.15
2022-10-23T07:13:46.694Z,26.10
2022-10-23T07:16:16.622Z,25.85
2022-10-23T07:18:46.130Z,26.50
2022-10-23T07:21:12.870Z,26.05
2022-10-23T07:23:40.357Z,28.20
2022-10-23T07:26:16.182Z,26.45
2022-10-23T07:28:47.692Z,25.58
2022-10-23T07:31:14.677Z,26.30
2022-10-23T07:33:49.351Z,26.83
2022-10-23T07:36:18.954Z,26.85
2022-10-23T07:38:50.558Z,27.05
2022-10-23T07:41:17.720Z,23.70
2022-10-23T07:43:44.754Z,26.77
2022-10-23T07:46:13.637Z,29.45
2022-10-23T07:48:43.040Z,26.63
2022-10-23T07:51:15.077Z,21.90
2022-10-23T07:53:44.500Z,27.70
2022-10-23T07:56:21.174Z,24.35
2022-10-23T07:58:47.811Z,24.13
2022-10-23T08:01:27.841Z,25.25
2022-10-23T08:03:54.498Z,24.92
2022-10-23T08:06:23.252Z,25.50
2022-10-23T08:08:54.724Z,21.95
2022-10-23T08:11:28.868Z,24.88
2022-10-23T08:13:59.045Z,22.48
2022-10-23T08:16:28.056Z,21.20
2022-10-23T08:21:26.276Z,20.65
2022-10-23T08:23:59.450Z,22.50
2022-10-23T08:26:26.890Z,18.75
2022-10-23T08:28:56.103Z,17.40
2022-10-23T08:31:25.402Z,17.75
2022-10-23T08:33:52.089Z,17.60
2022-10-23T08:36:28.753Z,18.88
2022-10-23T08:38:58.964Z,14.45
2022-10-23T08:41:28.099Z,16.65
2022-10-23T08:44:00.788Z,16.45
2022-10-23T08:46:34.320Z,15.73
2022-10-23T08:49:29.744Z,14.88
2022-10-23T08:51:59.984Z,13.60
2022-10-23T08:54:49.710Z,16.17
2022-10-23T08:57:20.632Z,14.48
2022-10-23T08:59:51.687Z,16.05
2022-10-23T09:02:23.393Z,13.23
2022-10-23T09:04:53.710Z,15.18
2022-10-23T09:08:00.241Z,17.63
2022-10-23T09:10:29.913Z,13.65
2022-10-23T09:13:11.990Z,14.63
2022-10-23T09:16:14.311Z,14.85
2022-10-23T09:18:42.785Z,13.77
2022-10-23T09:21:13.057Z,15.52
2022-10-23T09:23:42.339Z,15.93
2022-10-23T09:26:18.944Z,15.30
2022-10-23T09:28:49.355Z,17.60
2022-10-23T09:31:17.906Z,13.98
2022-10-23T09:34:01.580Z,13.88
2022-10-23T09:36:29.726Z,13.60
2022-10-23T09:39:00.534Z,12.43
2022-10-23T09:41:37.028Z,12.50
2022-10-23T09:44:28.756Z,14.60
2022-10-23T09:46:59.992Z,13.75
2022-10-23T09:49:31.579Z,13.23
2022-10-23T09:52:10.063Z,17.92
2022-10-23T09:54:38.772Z,15.38
2022-10-23T09:57:23.753Z,12.30
2022-10-23T09:59:53.141Z,12.50
2022-10-23T10:02:31.802Z,13.68
2022-10-23T10:04:59.244Z,12.88
2022-10-23T10:07:31.133Z,13.02
2022-10-23T10:10:00.168Z,11.25
2022-10-23T10:12:38.621Z,11.75
2022-10-23T10:15:13.469Z,11.00
2022-10-23T10:17:57.965Z,10.98
2022-10-23T10:20:41.816Z,11.40
2022-10-23T10:23:28.478Z,11.23
2022-10-23T10:26:06.876Z,11.38
2022-10-23T10:28:39.555Z,11.50
2022-10-23T10:31:20.825Z,11.55
2022-10-23T10:38:56.831Z,12.43
2022-10-23T10:41:38.746Z,16.80
2022-10-23T10:44:26.744Z,18.45
2022-10-23T10:47:15.926Z,23.35
2022-10-23T10:49:54.381Z,22.63
2022-10-23T10:52:32.449Z,19.63
2022-10-23T10:55:17.195Z,24.98
2022-10-23T10:58:04.116Z,26.55
2022-10-23T11:00:36.513Z,26.60
2022-10-23T11:03:09.060Z,22.45
2022-10-23T11:05:43.364Z,27.70
2022-10-23T11:08:56.195Z,28.08
2022-10-23T11:11:36.390Z,31.33
2022-10-23T11:14:03.202Z,35.17
2022-10-23T11:16:32.390Z,33.42
2022-10-23T11:19:14.230Z,37.03
2022-10-23T11:22:17.721Z,36.75
2022-10-23T11:24:52.360Z,35.33
2022-10-23T11:27:35.932Z,34.47
2022-10-23T11:30:24.076Z,31.65
2022-10-23T11:33:18.468Z,30.10
2022-10-23T11:35:51.079Z,30.23
2022-10-23T11:38:22.427Z,26.20
2022-10-23T11:40:56.505Z,27.42
2022-10-23T11:43:53.601Z,23.25
2022-10-23T11:46:23.320Z,21.20
2022-10-23T11:48:50.929Z,21.13
2022-10-23T11:51:35.414Z,18.70
2022-10-23T11:54:24.341Z,18.77
2022-10-23T11:56:54.874Z,17.55
2022-10-23T11:59:38.199Z,19.38
2022-10-23T12:02:19.312Z,15.85
2022-10-23T12:07:24.509Z,15.25
2022-10-23T12:10:43.623Z,13.98
2022-10-23T12:13:29.034Z,15.85
2022-10-23T12:15:58.582Z,13.43
2022-10-23T12:18:29.907Z,19.20
2022-10-23T12:20:59.289Z,12.80
2022-10-23T12:23:48.379Z,13.55
2022-10-23T12:26:39.684Z,18.17
2022-10-23T12:29:20.859Z,18.75
2022-10-23T12:34:31.695Z,19.95
2022-10-23T12:37:22.993Z,21.45
2022-10-23T12:39:57.508Z,18.40
2022-10-23T12:42:29.097Z,18.20
2022-10-23T12:45:21.643Z,14.57
2022-10-23T12:47:49.763Z,15.45
2022-10-23T12:50:37.615Z,15.50
2022-10-23T12:53:09.176Z,14.02
2022-10-23T12:56:01.694Z,16.13
2022-10-23T12:58:35.237Z,15.82
2022-10-23T13:01:05.265Z,14.57
2022-10-23T13:03:33.864Z,13.88
2022-10-23T13:06:03.657Z,15.52
2022-10-23T13:08:41.721Z,13.40
2022-10-23T13:11:13.967Z,15.20
2022-10-23T13:13:43.140Z,12.15
2022-10-23T13:16:23.045Z,15.68
2022-10-23T13:18:49.765Z,13.90
2022-10-23T13:21:22.623Z,11.48
2022-10-23T13:23:50.287Z,13.32
2022-10-23T13:26:22.804Z,11.32
2022-10-23T13:28:50.110Z,11.65
2022-10-23T13:31:16.699Z,11.27
2022-10-23T13:33:57.297Z,10.43
2022-10-23T13:36:27.543Z,11.68
2022-10-23T13:39:15.362Z,12.27
2022-10-23T13:41:46.731Z,12.00
2022-10-23T13:44:16.490Z,13.10
2022-10-23T13:46:43.691Z,13.93
2022-10-23T13:49:10.296Z,13.90
2022-10-23T13:51:48.739Z,11.63
2022-10-23T13:54:19.333Z,12.48
2022-10-23T13:56:46.704Z,14.00
2022-10-23T13:59:16.130Z,14.50
2022-10-23T14:01:44.324Z,15.43
2022-10-23T14:04:11.550Z,15.10
2022-10-23T14:06:38.678Z,14.10
2022-10-23T14:09:12.046Z,16.73
2022-10-23T14:11:42.033Z,14.70
2022-10-23T14:14:11.413Z,15.27
2022-10-23T14:16:42.880Z,15.43
2022-10-23T14:19:10.975Z,14.63
2022-10-23T14:21:40.004Z,15.95
2022-10-23T14:24:06.867Z,13.70
2022-10-23T14:26:35.736Z,15.43
2022-10-23T14:31:43.481Z,15.63
2022-10-23T14:34:10.185Z,15.52
2022-10-23T14:36:49.358Z,16.15
2022-10-23T14:39:17.724Z,17.23
2022-10-23T14:41:44.370Z,16.15
2022-10-23T14:44:13.458Z,15.98
2022-10-23T14:46:47.659Z,15.35
2022-10-23T14:49:16.831Z,16.40
2022-10-23T14:51:45.838Z,15.90
2022-10-23T14:54:12.560Z,14.60
2022-10-23T14:56:40.993Z,15.70
2022-10-23T14:59:12.571Z,16.08
2022-10-23T15:01:48.622Z,14.13
2022-10-23T15:04:16.316Z,16.77
2022-10-23T15:06:43.694Z,14.70
2022-10-23T15:09:14.271Z,15.85
2022-10-23T15:11:45.624Z,14.20
2022-10-23T15:14:17.020Z,17.52
2022-10-23T15:16:46.370Z,17.33
2022-10-23T15:19:18.630Z,16.30
2022-10-23T15:21:47.194Z,14.38
2022-10-23T15:24:17.931Z,13.60
2022-10-23T15:26:45.971Z,14.63
2022-10-23T15:29:23.020Z,13.60
2022-10-23T15:31:57.567Z,13.85
2022-10-23T15:34:32.651Z,14.35
2022-10-23T15:39:33.981Z,12.73
2022-10-23T15:42:00.513Z,11.82
2022-10-23T15:44:32.245Z,14.02
2022-10-23T15:46:59.026Z,12.10
2022-10-23T15:49:31.926Z,13.05
2022-10-23T15:52:00.949Z,14.98
2022-10-23T15:54:32.694Z,17.48
2022-10-23T15:57:00.712Z,14.27
2022-10-23T15:59:32.548Z,11.90
2022-10-23T16:02:03.970Z,12.15
2022-10-23T16:04:30.701Z,12.88
2022-10-23T16:07:02.151Z,14.25
2022-10-23T16:09:30.224Z,14.02
2022-10-23T16:11:59.078Z,13.43
2022-10-23T16:16:56.665Z,14.80
2022-10-23T16:19:23.254Z,14.25
2022-10-23T16:21:52.964Z,12.30
2022-10-23T16:24:24.309Z,14.02
2022-10-23T16:26:56.789Z,12.02
2022-10-23T16:29:25.735Z,12.88
2022-10-23T16:31:58.967Z,14.02
2022-10-23T16:34:25.909Z,14.60
2022-10-23T16:36:54.809Z,12.75
2022-10-23T16:41:51.183Z,13.05
2022-10-23T16:44:18.770Z,10.02
2022-10-23T16:46:45.717Z,10.95
2022-10-23T16:49:17.654Z,9.98
2022-10-23T16:51:50.952Z,12.57
2022-10-23T16:54:19.813Z,10.95
2022-10-23T16:59:21.181Z,8.27
2022-10-23T17:01:53.299Z,9.00
2022-10-23T17:04:20.323Z,11.07
2022-10-23T17:06:49.608Z,8.00
2022-10-23T17:09:19.759Z,8.55
2022-10-23T17:11:57.547Z,8.98
2022-10-23T17:14:30.999Z,8.88
2022-10-23T17:17:04.346Z,9.05
2022-10-23T17:19:48.166Z,7.10
2022-10-23T17:22:19.211Z,8.60
2022-10-23T17:24:56.220Z,9.45
2022-10-23T17:27:25.135Z,7.35
2022-10-23T17:34:51.834Z,8.18
2022-10-23T17:37:20.817Z,7.82
2022-10-23T17:39:47.416Z,8.35
2022-10-23T17:42:16.432Z,6.95
2022-10-23T17:44:43.068Z,8.75
2022-10-23T17:47:09.791Z,8.13
2022-10-23T17:49:36.467Z,7.63
2022-10-23T17:52:05.659Z,8.10
2022-10-23T17:54:34.671Z,9.10
2022-10-23T17:57:01.209Z,7.10
2022-10-23T17:59:30.488Z,7.60
2022-10-23T18:01:59.581Z,7.25
2022-10-23T18:04:28.838Z,9.50
2022-10-23T18:06:55.433Z,8.45
2022-10-23T18:09:23.130Z,7.03
2022-10-23T18:11:50.283Z,8.10
2022-10-23T18:14:18.866Z,8.48
2022-10-23T18:16:48.911Z,9.68
2022-10-23T18:19:18.417Z,9.60
2022-10-23T18:21:48.617Z,10.40
2022-10-23T18:24:15.986Z,8.32
2022-10-23T18:26:46.153Z,9.65
2022-10-23T18:29:17.598Z,8.70
2022-10-23T18:31:49.557Z,9.25
2022-10-23T18:34:19.303Z,8.15
2022-10-23T18:36:51.232Z,9.43
2022-10-23T18:39:25.283Z,10.13
2022-10-23T18:41:57.045Z,8.55
2022-10-23T18:44:29.473Z,10.02
2022-10-23T18:46:57.707Z,7.40
2022-10-23T18:49:24.355Z,9.02
2022-10-23T18:51:53.561Z,10.27
2022-10-23T18:54:23.371Z,8.32
2022-10-23T18:56:55.954Z,8.00
2022-10-23T18:59:22.692Z,8.35
2022-10-23T19:01:52.124Z,10.48
2022-10-23T19:04:21.192Z,8.75
2022-10-23T19:09:15.406Z,9.77
2022-10-23T19:11:45.552Z,10.73
2022-10-23T19:14:12.292Z,8.77
2022-10-23T19:17:08.241Z,11.70
2022-10-23T19:19:43.232Z,10.77
2022-10-23T19:25:43.111Z,9.23
2022-10-23T19:28:09.692Z,8.40
2022-10-23T19:34:31.548Z,9.77
2022-10-23T19:37:04.157Z,10.32
2022-10-23T19:39:37.177Z,11.82
2022-10-23T19:43:10.579Z,12.20
2022-10-23T19:45:39.521Z,10.27
2022-10-23T19:50:37.327Z,14.77
2022-10-23T19:53:14.128Z,13.30
2022-10-23T19:55:40.615Z,13.70
2022-10-23T19:58:07.190Z,12.05
2022-10-23T20:00:33.700Z,13.30
2022-10-23T20:03:02.800Z,16.25
2022-10-23T20:05:32.937Z,12.07
2022-10-23T20:07:59.938Z,15.77
2022-10-23T20:10:34.097Z,14.57
2022-10-23T20:13:15.161Z,14.90
2022-10-23T20:15:45.721Z,13.95
2022-10-23T20:18:14.777Z,15.82
2022-10-23T20:20:45.168Z,16.10
2022-10-23T20:23:22.201Z,17.05
2022-10-23T20:25:51.096Z,14.43
2022-10-23T20:30:46.187Z,17.42
2022-10-23T20:33:14.058Z,13.75
2022-10-23T20:35:47.954Z,17.42
2022-10-23T20:38:20.755Z,14.50
2022-10-23T20:40:49.313Z,15.45
2022-10-23T20:43:16.031Z,17.08
2022-10-23T20:45:44.868Z,14.05
2022-10-23T20:48:12.145Z,13.25
2022-10-23T20:50:38.711Z,14.45
2022-10-23T20:53:11.662Z,16.25
2022-10-23T20:55:45.455Z,13.05
2022-10-23T20:58:14.269Z,14.65
2022-10-23T21:00:43.177Z,14.75
2022-10-23T21:03:09.776Z,14.82
2022-10-23T21:05:36.326Z,12.55
2022-10-23T21:08:03.048Z,12.65
2022-10-23T21:10:32.146Z,15.02
2022-10-23T21:12:58.629Z,14.10
2022-10-23T21:15:28.159Z,13.27
2022-10-23T21:18:03.973Z,14.07
2022-10-23T21:20:39.901Z,15.73
2022-10-23T21:23:06.567Z,13.95
2022-10-23T21:25:33.299Z,16.10
2022-10-23T21:27:59.903Z,14.98
2022-10-23T21:30:28.967Z,13.05
2022-10-23T21:33:00.727Z,14.07
2022-10-23T21:35:29.972Z,12.98
2022-10-23T21:37:59.642Z,16.23
2022-10-23T21:40:26.391Z,11.85
2022-10-23T21:42:56.014Z,12.23
2022-10-23T21:45:27.272Z,11.23
2022-10-23T21:47:54.053Z,14.27
2022-10-23T21:50:20.644Z,12.52
2022-10-23T21:52:52.102Z,12.18
2022-10-23T21:55:23.820Z,12.88
2022-10-23T21:57:50.425Z,13.82
2022-10-23T22:00:19.284Z,13.23
2022-10-23T22:05:33.510Z,11.52
2022-10-23T22:08:00.042Z,13.30
2022-10-23T22:10:28.896Z,14.18
2022-10-23T22:15:26.625Z,12.50
2022-10-23T22:20:19.733Z,13.63
2022-10-23T22:22:48.670Z,13.10
2022-10-23T22:27:41.770Z,10.82
2022-10-23T22:30:08.656Z,14.18
2022-10-23T22:32:35.641Z,14.57
2022-10-23T22:35:04.458Z,12.32
2022-10-23T22:37:36.724Z,12.05
2022-10-23T22:40:03.422Z,13.93
2022-10-23T22:42:29.955Z,13.13
2022-10-23T22:44:58.985Z,15.05
2022-10-23T22:47:29.284Z,12.60
2022-10-23T22:49:58.071Z,15.93
2022-10-23T22:52:26.949Z,13.10
2022-10-23T22:57:19.892Z,12.32
2022-10-23T22:59:46.447Z,12.85
2022-10-23T23:02:12.943Z,15.20
2022-10-23T23:04:39.656Z,14.60
2022-10-23T23:07:12.365Z,13.43
2022-10-23T23:09:45.803Z,17.17
2022-10-23T23:12:18.643Z,15.63
2022-10-23T23:14:47.772Z,14.57
2022-10-23T23:17:14.262Z,12.55
2022-10-23T23:19:45.759Z,13.55
2022-10-23T23:22:12.277Z,14.45
2022-10-23T23:24:41.824Z,13.75
2022-10-23T23:27:13.151Z,16.30
2022-10-23T23:29:41.937Z,16.00
2022-10-23T23:32:11.037Z,14.15
2022-10-23T23:34:39.746Z,18.13
2022-10-23T23:37:08.988Z,17.00
2022-10-23T23:39:37.690Z,17.38
2022-10-23T23:42:04.332Z,16.65
2022-10-23T23:44:31.022Z,19.77
2022-10-23T23:46:57.579Z,19.90
2022-10-23T23:49:27.315Z,19.58
2022-10-23T23:51:56.096Z,17.67
2022-10-23T23:54:22.629Z,19.05
2022-10-23T23:56:51.368Z,21.30
2022-10-23T23:59:22.612Z,19.00
